sensor_id;sensor_type;location;lat;lon;timestamp;P1;durP1;ratioP1;P2;durP2;ratioP2
37781;SDS011;23621;50.878;4.584;2023-02-26T00:01:42;10.90;;;5.00;;
37781;SDS011;23621;50.878;4.584;2023-02-26T00:04:13;7.97;;;4.30;;
37781;SDS011;23621;50.878;4.584;2023-02-26T00:06:46;7.30;;;4.28;;
37781;SDS011;23621;50.878;4.584;2023-02-26T00:09:23;11.73;;;4.93;;
37781;SDS011;23621;50.878;4.584;2023-02-26T00:11:56;9.00;;;4.88;;
37781;SDS011;23621;50.878;4.584;2023-02-26T00:14:25;9.80;;;4.50;;
37781;SDS011;23621;50.878;4.584;2023-02-26T00:19:57;7.90;;;5.22;;
37781;SDS011;23621;50.878;4.584;2023-02-26T00:23:51;7.20;;;4.20;;
37781;SDS011;23621;50.878;4.584;2023-02-26T00:26:19;6.85;;;4.72;;
37781;SDS011;23621;50.878;4.584;2023-02-26T00:28:48;14.18;;;6.05;;
37781;SDS011;23621;50.878;4.584;2023-02-26T00:31:25;12.27;;;6.38;;
37781;SDS011;23621;50.878;4.584;2023-02-26T00:33:53;11.20;;;6.53;;
37781;SDS011;23621;50.878;4.584;2023-02-26T00:39:29;8.63;;;5.57;;
37781;SDS011;23621;50.878;4.584;2023-02-26T00:42:14;7.57;;;4.72;;
37781;SDS011;23621;50.878;4.584;2023-02-26T00:44:42;13.77;;;5.10;;
37781;SDS011;23621;50.878;4.584;2023-02-26T00:50:00;8.43;;;4.70;;
37781;SDS011;23621;50.878;4.584;2023-02-26T00:53:46;5.97;;;4.93;;
37781;SDS011;23621;50.878;4.584;2023-02-26T00:56:19;7.57;;;3.97;;
37781;SDS011;23621;50.878;4.584;2023-02-26T00:58:46;7.07;;;4.13;;
37781;SDS011;23621;50.878;4.584;2023-02-26T01:01:13;6.45;;;4.68;;
37781;SDS011;23621;50.878;4.584;2023-02-26T01:03:40;11.23;;;4.72;;
37781;SDS011;23621;50.878;4.584;2023-02-26T01:06:17;8.07;;;4.38;;
37781;SDS011;23621;50.878;4.584;2023-02-26T01:08:50;9.65;;;4.28;;
37781;SDS011;23621;50.878;4.584;2023-02-26T01:11:39;8.07;;;4.63;;
37781;SDS011;23621;50.878;4.584;2023-02-26T01:14:07;6.45;;;4.10;;
37781;SDS011;23621;50.878;4.584;2023-02-26T01:16:39;7.53;;;4.60;;
37781;SDS011;23621;50.878;4.584;2023-02-26T01:19:38;7.50;;;4.03;;
37781;SDS011;23621;50.878;4.584;2023-02-26T01:22:53;9.07;;;4.22;;
37781;SDS011;23621;50.878;4.584;2023-02-26T01:25:26;7.05;;;4.60;;
37781;SDS011;23621;50.878;4.584;2023-02-26T01:28:17;9.13;;;4.47;;
37781;SDS011;23621;50.878;4.584;2023-02-26T01:30:50;6.90;;;4.38;;
37781;SDS011;23621;50.878;4.584;2023-02-26T01:33:24;6.28;;;4.35;;
37781;SDS011;23621;50.878;4.584;2023-02-26T01:36:20;7.30;;;4.05;;
37781;SDS011;23621;50.878;4.584;2023-02-26T01:44:25;7.10;;;3.97;;
37781;SDS011;23621;50.878;4.584;2023-02-26T01:49:42;10.32;;;4.50;;
37781;SDS011;23621;50.878;4.584;2023-02-26T01:55:17;7.30;;;4.38;;
37781;SDS011;23621;50.878;4.584;2023-02-26T01:57:46;9.68;;;4.13;;
37781;SDS011;23621;50.878;4.584;2023-02-26T02:00:14;8.10;;;4.10;;
37781;SDS011;23621;50.878;4.584;2023-02-26T02:02:42;5.03;;;4.07;;
37781;SDS011;23621;50.878;4.584;2023-02-26T02:05:45;6.60;;;4.57;;
37781;SDS011;23621;50.878;4.584;2023-02-26T02:08:12;7.90;;;4.45;;
37781;SDS011;23621;50.878;4.584;2023-02-26T02:10:40;8.45;;;3.90;;
37781;SDS011;23621;50.878;4.584;2023-02-26T02:13:14;6.50;;;4.43;;
37781;SDS011;23621;50.878;4.584;2023-02-26T02:16:04;8.73;;;4.32;;
37781;SDS011;23621;50.878;4.584;2023-02-26T02:19:04;8.13;;;4.15;;
37781;SDS011;23621;50.878;4.584;2023-02-26T02:27:29;6.65;;;3.92;;
37781;SDS011;23621;50.878;4.584;2023-02-26T02:33:00;6.00;;;3.88;;
37781;SDS011;23621;50.878;4.584;2023-02-26T02:35:32;6.55;;;4.05;;
37781;SDS011;23621;50.878;4.584;2023-02-26T02:38:04;8.70;;;4.10;;
37781;SDS011;23621;50.878;4.584;2023-02-26T02:40:43;7.30;;;4.05;;
37781;SDS011;23621;50.878;4.584;2023-02-26T02:43:16;8.20;;;3.83;;
37781;SDS011;23621;50.878;4.584;2023-02-26T02:45:51;9.13;;;4.53;;
37781;SDS011;23621;50.878;4.584;2023-02-26T02:48:48;8.73;;;3.90;;
37781;SDS011;23621;50.878;4.584;2023-02-26T02:51:22;10.15;;;4.40;;
37781;SDS011;23621;50.878;4.584;2023-02-26T02:54:15;8.73;;;3.97;;
37781;SDS011;23621;50.878;4.584;2023-02-26T02:57:07;7.00;;;3.95;;
37781;SDS011;23621;50.878;4.584;2023-02-26T02:59:44;8.00;;;3.85;;
37781;SDS011;23621;50.878;4.584;2023-02-26T03:02:18;10.98;;;4.78;;
37781;SDS011;23621;50.878;4.584;2023-02-26T03:05:13;7.68;;;3.63;;
37781;SDS011;23621;50.878;4.584;2023-02-26T03:07:47;6.00;;;3.70;;
37781;SDS011;23621;50.878;4.584;2023-02-26T03:10:27;7.88;;;4.55;;
37781;SDS011;23621;50.878;4.584;2023-02-26T03:12:54;6.78;;;3.20;;
37781;SDS011;23621;50.878;4.584;2023-02-26T03:15:27;7.78;;;3.97;;
37781;SDS011;23621;50.878;4.584;2023-02-26T03:25:32;4.75;;;3.30;;
37781;SDS011;23621;50.878;4.584;2023-02-26T03:28:29;5.47;;;3.20;;
37781;SDS011;23621;50.878;4.584;2023-02-26T03:31:04;6.95;;;3.50;;
37781;SDS011;23621;50.878;4.584;2023-02-26T03:36:45;8.27;;;3.28;;
37781;SDS011;23621;50.878;4.584;2023-02-26T03:47:58;6.32;;;2.97;;
37781;SDS011;23621;50.878;4.584;2023-02-26T03:50:34;6.85;;;3.80;;
37781;SDS011;23621;50.878;4.584;2023-02-26T03:53:26;8.93;;;2.97;;
37781;SDS011;23621;50.878;4.584;2023-02-26T03:56:07;5.32;;;3.13;;
37781;SDS011;23621;50.878;4.584;2023-02-26T03:58:47;5.95;;;3.42;;
37781;SDS011;23621;50.878;4.584;2023-02-26T04:01:15;5.72;;;3.35;;
37781;SDS011;23621;50.878;4.584;2023-02-26T04:03:56;5.63;;;2.92;;
37781;SDS011;23621;50.878;4.584;2023-02-26T04:06:27;6.18;;;3.40;;
37781;SDS011;23621;50.878;4.584;2023-02-26T04:08:55;5.95;;;3.33;;
37781;SDS011;23621;50.878;4.584;2023-02-26T04:11:22;6.50;;;3.08;;
37781;SDS011;23621;50.878;4.584;2023-02-26T04:13:53;8.32;;;3.15;;
37781;SDS011;23621;50.878;4.584;2023-02-26T04:16:20;5.13;;;3.25;;
37781;SDS011;23621;50.878;4.584;2023-02-26T04:19:00;6.00;;;2.88;;
37781;SDS011;23621;50.878;4.584;2023-02-26T04:21:27;6.07;;;3.10;;
37781;SDS011;23621;50.878;4.584;2023-02-26T04:23:57;6.47;;;3.25;;
37781;SDS011;23621;50.878;4.584;2023-02-26T04:26:27;4.68;;;3.15;;
37781;SDS011;23621;50.878;4.584;2023-02-26T04:28:54;4.70;;;2.80;;
37781;SDS011;23621;50.878;4.584;2023-02-26T04:31:21;5.00;;;3.17;;
37781;SDS011;23621;50.878;4.584;2023-02-26T04:33:48;4.53;;;2.47;;
37781;SDS011;23621;50.878;4.584;2023-02-26T04:36:19;3.92;;;2.70;;
37781;SDS011;23621;50.878;4.584;2023-02-26T04:38:45;3.75;;;2.65;;
37781;SDS011;23621;50.878;4.584;2023-02-26T04:41:13;7.88;;;3.80;;
37781;SDS011;23621;50.878;4.584;2023-02-26T04:43:40;5.35;;;2.85;;
37781;SDS011;23621;50.878;4.584;2023-02-26T04:46:07;7.00;;;2.53;;
37781;SDS011;23621;50.878;4.584;2023-02-26T04:48:33;8.40;;;2.72;;
37781;SDS011;23621;50.878;4.584;2023-02-26T04:51:00;3.55;;;2.65;;
37781;SDS011;23621;50.878;4.584;2023-02-26T04:53:27;3.78;;;2.90;;
37781;SDS011;23621;50.878;4.584;2023-02-26T04:55:54;4.68;;;2.80;;
37781;SDS011;23621;50.878;4.584;2023-02-26T04:58:21;5.13;;;3.03;;
37781;SDS011;23621;50.878;4.584;2023-02-26T05:00:49;7.32;;;3.00;;
37781;SDS011;23621;50.878;4.584;2023-02-26T05:03:17;5.30;;;2.80;;
37781;SDS011;23621;50.878;4.584;2023-02-26T05:05:44;6.75;;;3.35;;
37781;SDS011;23621;50.878;4.584;2023-02-26T05:08:11;5.85;;;2.80;;
37781;SDS011;23621;50.878;4.584;2023-02-26T05:10:39;4.53;;;3.03;;
37781;SDS011;23621;50.878;4.584;2023-02-26T05:13:05;6.75;;;3.00;;
37781;SDS011;23621;50.878;4.584;2023-02-26T05:15:32;3.50;;;2.58;;
37781;SDS011;23621;50.878;4.584;2023-02-26T05:17:59;8.82;;;2.75;;
37781;SDS011;23621;50.878;4.584;2023-02-26T05:20:26;6.80;;;2.60;;
37781;SDS011;23621;50.878;4.584;2023-02-26T05:22:53;4.82;;;2.47;;
37781;SDS011;23621;50.878;4.584;2023-02-26T05:25:20;5.05;;;2.78;;
37781;SDS011;23621;50.878;4.584;2023-02-26T05:27:47;4.25;;;2.60;;
37781;SDS011;23621;50.878;4.584;2023-02-26T05:30:15;4.20;;;2.33;;
37781;SDS011;23621;50.878;4.584;2023-02-26T05:32:43;3.50;;;2.70;;
37781;SDS011;23621;50.878;4.584;2023-02-26T05:35:10;5.15;;;2.45;;
37781;SDS011;23621;50.878;4.584;2023-02-26T05:37:37;4.50;;;2.25;;
37781;SDS011;23621;50.878;4.584;2023-02-26T05:40:05;7.45;;;2.78;;
37781;SDS011;23621;50.878;4.584;2023-02-26T05:42:37;2.97;;;2.13;;
37781;SDS011;23621;50.878;4.584;2023-02-26T05:45:05;5.50;;;3.05;;
37781;SDS011;23621;50.878;4.584;2023-02-26T05:47:33;4.93;;;2.85;;
37781;SDS011;23621;50.878;4.584;2023-02-26T05:50:00;5.28;;;2.72;;
37781;SDS011;23621;50.878;4.584;2023-02-26T05:52:28;5.38;;;2.83;;
37781;SDS011;23621;50.878;4.584;2023-02-26T05:54:55;5.97;;;3.20;;
37781;SDS011;23621;50.878;4.584;2023-02-26T05:57:22;5.00;;;2.60;;
37781;SDS011;23621;50.878;4.584;2023-02-26T05:59:49;4.78;;;2.38;;
37781;SDS011;23621;50.878;4.584;2023-02-26T06:02:16;4.22;;;2.53;;
37781;SDS011;23621;50.878;4.584;2023-02-26T06:04:44;7.82;;;2.75;;
37781;SDS011;23621;50.878;4.584;2023-02-26T06:07:11;5.00;;;2.42;;
37781;SDS011;23621;50.878;4.584;2023-02-26T06:09:38;8.02;;;2.95;;
37781;SDS011;23621;50.878;4.584;2023-02-26T06:12:06;5.10;;;2.60;;
37781;SDS011;23621;50.878;4.584;2023-02-26T06:14:33;4.35;;;2.35;;
37781;SDS011;23621;50.878;4.584;2023-02-26T06:17:01;5.07;;;2.80;;
37781;SDS011;23621;50.878;4.584;2023-02-26T06:19:29;7.22;;;2.72;;
37781;SDS011;23621;50.878;4.584;2023-02-26T06:21:56;4.30;;;2.60;;
37781;SDS011;23621;50.878;4.584;2023-02-26T06:24:23;5.80;;;2.38;;
37781;SDS011;23621;50.878;4.584;2023-02-26T06:26:50;4.40;;;2.25;;
37781;SDS011;23621;50.878;4.584;2023-02-26T06:29:18;4.43;;;2.10;;
37781;SDS011;23621;50.878;4.584;2023-02-26T06:31:46;4.53;;;2.20;;
37781;SDS011;23621;50.878;4.584;2023-02-26T06:34:13;6.22;;;2.00;;
37781;SDS011;23621;50.878;4.584;2023-02-26T06:36:47;5.07;;;1.88;;
37781;SDS011;23621;50.878;4.584;2023-02-26T06:39:14;6.03;;;2.25;;
37781;SDS011;23621;50.878;4.584;2023-02-26T06:41:40;4.18;;;1.85;;
37781;SDS011;23621;50.878;4.584;2023-02-26T06:44:08;4.35;;;1.85;;
37781;SDS011;23621;50.878;4.584;2023-02-26T06:46:36;4.65;;;2.22;;
37781;SDS011;23621;50.878;4.584;2023-02-26T06:49:04;6.93;;;2.30;;
37781;SDS011;23621;50.878;4.584;2023-02-26T06:51:30;3.28;;;1.90;;
37781;SDS011;23621;50.878;4.584;2023-02-26T06:53:58;3.47;;;2.13;;
37781;SDS011;23621;50.878;4.584;2023-02-26T06:56:25;4.93;;;2.28;;
37781;SDS011;23621;50.878;4.584;2023-02-26T06:58:52;5.30;;;2.20;;
37781;SDS011;23621;50.878;4.584;2023-02-26T07:01:19;5.25;;;2.20;;
37781;SDS011;23621;50.878;4.584;2023-02-26T07:03:46;6.00;;;2.33;;
37781;SDS011;23621;50.878;4.584;2023-02-26T07:06:13;5.10;;;2.28;;
37781;SDS011;23621;50.878;4.584;2023-02-26T07:09:01;5.32;;;2.35;;
37781;SDS011;23621;50.878;4.584;2023-02-26T07:11:28;4.28;;;2.13;;
37781;SDS011;23621;50.878;4.584;2023-02-26T07:13:55;3.92;;;2.00;;
37781;SDS011;23621;50.878;4.584;2023-02-26T07:16:26;4.75;;;2.35;;
37781;SDS011;23621;50.878;4.584;2023-02-26T07:18:54;6.45;;;1.90;;
37781;SDS011;23621;50.878;4.584;2023-02-26T07:21:23;2.72;;;2.15;;
37781;SDS011;23621;50.878;4.584;2023-02-26T07:23:50;7.88;;;2.55;;
37781;SDS011;23621;50.878;4.584;2023-02-26T07:26:17;3.17;;;2.13;;
37781;SDS011;23621;50.878;4.584;2023-02-26T07:28:47;3.60;;;2.35;;
37781;SDS011;23621;50.878;4.584;2023-02-26T07:31:14;5.68;;;2.17;;
37781;SDS011;23621;50.878;4.584;2023-02-26T07:33:42;3.38;;;1.90;;
37781;SDS011;23621;50.878;4.584;2023-02-26T07:36:09;4.80;;;1.90;;
37781;SDS011;23621;50.878;4.584;2023-02-26T07:38:36;4.60;;;1.73;;
37781;SDS011;23621;50.878;4.584;2023-02-26T07:43:40;4.85;;;2.13;;
37781;SDS011;23621;50.878;4.584;2023-02-26T07:46:07;2.92;;;1.90;;
37781;SDS011;23621;50.878;4.584;2023-02-26T07:48:44;5.40;;;2.05;;
37781;SDS011;23621;50.878;4.584;2023-02-26T07:51:11;5.03;;;1.85;;
37781;SDS011;23621;50.878;4.584;2023-02-26T07:53:38;5.30;;;2.22;;
37781;SDS011;23621;50.878;4.584;2023-02-26T07:56:04;5.15;;;2.58;;
37781;SDS011;23621;50.878;4.584;2023-02-26T07:58:31;4.38;;;2.38;;
37781;SDS011;23621;50.878;4.584;2023-02-26T08:00:58;5.18;;;2.22;;
37781;SDS011;23621;50.878;4.584;2023-02-26T08:03:25;6.05;;;2.30;;
37781;SDS011;23621;50.878;4.584;2023-02-26T08:05:52;3.72;;;2.28;;
37781;SDS011;23621;50.878;4.584;2023-02-26T08:08:19;2.80;;;2.08;;
37781;SDS011;23621;50.878;4.584;2023-02-26T08:10:46;5.13;;;2.15;;
37781;SDS011;23621;50.878;4.584;2023-02-26T08:13:13;4.75;;;2.58;;
37781;SDS011;23621;50.878;4.584;2023-02-26T08:15:40;3.80;;;2.03;;
37781;SDS011;23621;50.878;4.584;2023-02-26T08:18:09;4.38;;;2.20;;
37781;SDS011;23621;50.878;4.584;2023-02-26T08:20:37;2.33;;;1.88;;
37781;SDS011;23621;50.878;4.584;2023-02-26T08:23:04;6.30;;;2.10;;
37781;SDS011;23621;50.878;4.584;2023-02-26T08:25:31;6.07;;;2.15;;
37781;SDS011;23621;50.878;4.584;2023-02-26T08:27:58;3.88;;;1.70;;
37781;SDS011;23621;50.878;4.584;2023-02-26T08:30:26;5.80;;;2.08;;
37781;SDS011;23621;50.878;4.584;2023-02-26T08:32:53;2.45;;;1.92;;
37781;SDS011;23621;50.878;4.584;2023-02-26T08:35:20;4.85;;;1.83;;
37781;SDS011;23621;50.878;4.584;2023-02-26T08:37:50;4.10;;;2.20;;
37781;SDS011;23621;50.878;4.584;2023-02-26T08:40:18;4.13;;;1.90;;
37781;SDS011;23621;50.878;4.584;2023-02-26T08:42:45;5.25;;;2.00;;
37781;SDS011;23621;50.878;4.584;2023-02-26T08:45:23;3.28;;;1.48;;
37781;SDS011;23621;50.878;4.584;2023-02-26T08:47:56;4.97;;;2.40;;
37781;SDS011;23621;50.878;4.584;2023-02-26T08:50:24;2.67;;;1.80;;
37781;SDS011;23621;50.878;4.584;2023-02-26T08:52:52;3.53;;;1.92;;
37781;SDS011;23621;50.878;4.584;2023-02-26T08:55:19;3.47;;;1.83;;
37781;SDS011;23621;50.878;4.584;2023-02-26T08:57:46;3.70;;;1.88;;
37781;SDS011;23621;50.878;4.584;2023-02-26T09:00:13;5.88;;;1.70;;
37781;SDS011;23621;50.878;4.584;2023-02-26T09:02:59;5.05;;;2.45;;
37781;SDS011;23621;50.878;4.584;2023-02-26T09:06:02;6.53;;;2.00;;
37781;SDS011;23621;50.878;4.584;2023-02-26T09:08:39;6.30;;;2.00;;
37781;SDS011;23621;50.878;4.584;2023-02-26T09:11:06;5.22;;;2.33;;
37781;SDS011;23621;50.878;4.584;2023-02-26T09:13:33;3.03;;;1.98;;
37781;SDS011;23621;50.878;4.584;2023-02-26T09:16:00;2.33;;;1.80;;
37781;SDS011;23621;50.878;4.584;2023-02-26T09:18:32;6.00;;;2.00;;
37781;SDS011;23621;50.878;4.584;2023-02-26T09:21:00;2.40;;;2.20;;
37781;SDS011;23621;50.878;4.584;2023-02-26T09:23:44;5.15;;;2.00;;
37781;SDS011;23621;50.878;4.584;2023-02-26T09:26:11;5.03;;;2.03;;
37781;SDS011;23621;50.878;4.584;2023-02-26T09:28:38;3.08;;;2.00;;
37781;SDS011;23621;50.878;4.584;2023-02-26T09:31:05;2.78;;;2.00;;
37781;SDS011;23621;50.878;4.584;2023-02-26T09:33:36;4.70;;;1.90;;
37781;SDS011;23621;50.878;4.584;2023-02-26T09:36:09;2.97;;;1.98;;
37781;SDS011;23621;50.878;4.584;2023-02-26T09:38:44;1.98;;;1.80;;
37781;SDS011;23621;50.878;4.584;2023-02-26T09:52:00;3.97;;;1.90;;
37781;SDS011;23621;50.878;4.584;2023-02-26T09:54:34;5.70;;;2.40;;
37781;SDS011;23621;50.878;4.584;2023-02-26T09:57:10;6.05;;;2.53;;
37781;SDS011;23621;50.878;4.584;2023-02-26T09:59:50;5.32;;;2.10;;
37781;SDS011;23621;50.878;4.584;2023-02-26T10:02:20;3.47;;;1.88;;
37781;SDS011;23621;50.878;4.584;2023-02-26T10:05:18;5.03;;;2.13;;
37781;SDS011;23621;50.878;4.584;2023-02-26T10:08:14;2.05;;;1.67;;
37781;SDS011;23621;50.878;4.584;2023-02-26T10:11:10;3.42;;;1.98;;
37781;SDS011;23621;50.878;4.584;2023-02-26T10:13:52;5.97;;;1.92;;
37781;SDS011;23621;50.878;4.584;2023-02-26T10:16:29;2.40;;;1.60;;
37781;SDS011;23621;50.878;4.584;2023-02-26T10:22:35;2.70;;;1.60;;
37781;SDS011;23621;50.878;4.584;2023-02-26T10:25:20;1.85;;;1.60;;
37781;SDS011;23621;50.878;4.584;2023-02-26T10:30:45;2.67;;;1.50;;
37781;SDS011;23621;50.878;4.584;2023-02-26T10:33:21;2.63;;;1.30;;
37781;SDS011;23621;50.878;4.584;2023-02-26T10:36:01;2.35;;;1.63;;
37781;SDS011;23621;50.878;4.584;2023-02-26T10:38:38;2.25;;;1.73;;
37781;SDS011;23621;50.878;4.584;2023-02-26T10:41:09;2.47;;;1.60;;
37781;SDS011;23621;50.878;4.584;2023-02-26T10:43:41;1.63;;;1.50;;
37781;SDS011;23621;50.878;4.584;2023-02-26T10:49:30;2.47;;;1.50;;
37781;SDS011;23621;50.878;4.584;2023-02-26T10:52:15;3.55;;;1.35;;
37781;SDS011;23621;50.878;4.584;2023-02-26T10:57:30;4.32;;;1.77;;
37781;SDS011;23621;50.878;4.584;2023-02-26T11:00:01;3.45;;;1.70;;
37781;SDS011;23621;50.878;4.584;2023-02-26T11:02:35;3.22;;;1.60;;
37781;SDS011;23621;50.878;4.584;2023-02-26T11:05:15;3.72;;;1.58;;
37781;SDS011;23621;50.878;4.584;2023-02-26T11:07:50;1.83;;;1.60;;
37781;SDS011;23621;50.878;4.584;2023-02-26T11:10:30;2.10;;;1.73;;
37781;SDS011;23621;50.878;4.584;2023-02-26T11:13:05;2.55;;;1.58;;
37781;SDS011;23621;50.878;4.584;2023-02-26T11:15:32;2.03;;;1.35;;
37781;SDS011;23621;50.878;4.584;2023-02-26T11:18:05;1.92;;;1.30;;
37781;SDS011;23621;50.878;4.584;2023-02-26T11:20:40;3.10;;;1.48;;
37781;SDS011;23621;50.878;4.584;2023-02-26T11:23:10;3.53;;;1.73;;
37781;SDS011;23621;50.878;4.584;2023-02-26T11:25:42;3.15;;;1.40;;
37781;SDS011;23621;50.878;4.584;2023-02-26T11:28:44;2.78;;;1.42;;
37781;SDS011;23621;50.878;4.584;2023-02-26T11:31:08;4.72;;;1.38;;
37781;SDS011;23621;50.878;4.584;2023-02-26T11:33:38;2.10;;;1.80;;
37781;SDS011;23621;50.878;4.584;2023-02-26T11:36:11;1.45;;;1.20;;
37781;SDS011;23621;50.878;4.584;2023-02-26T11:38:40;1.45;;;1.00;;
37781;SDS011;23621;50.878;4.584;2023-02-26T11:41:12;2.42;;;1.30;;
37781;SDS011;23621;50.878;4.584;2023-02-26T11:43:41;1.73;;;1.30;;
37781;SDS011;23621;50.878;4.584;2023-02-26T11:46:10;1.50;;;1.40;;
37781;SDS011;23621;50.878;4.584;2023-02-26T11:48:45;1.80;;;1.25;;
37781;SDS011;23621;50.878;4.584;2023-02-26T11:51:15;2.42;;;1.20;;
37781;SDS011;23621;50.878;4.584;2023-02-26T11:53:53;4.07;;;1.27;;
37781;SDS011;23621;50.878;4.584;2023-02-26T11:56:28;1.40;;;1.30;;
37781;SDS011;23621;50.878;4.584;2023-02-26T11:58:57;1.65;;;1.30;;
37781;SDS011;23621;50.878;4.584;2023-02-26T12:01:30;1.40;;;1.20;;
37781;SDS011;23621;50.878;4.584;2023-02-26T12:03:58;3.75;;;1.58;;
37781;SDS011;23621;50.878;4.584;2023-02-26T12:06:28;1.80;;;1.70;;
37781;SDS011;23621;50.878;4.584;2023-02-26T12:08:55;2.78;;;1.50;;
37781;SDS011;23621;50.878;4.584;2023-02-26T12:11:35;2.15;;;1.30;;
37781;SDS011;23621;50.878;4.584;2023-02-26T12:20:12;1.55;;;1.40;;
37781;SDS011;23621;50.878;4.584;2023-02-26T12:29:05;2.58;;;1.45;;
37781;SDS011;23621;50.878;4.584;2023-02-26T12:37:37;1.52;;;1.10;;
37781;SDS011;23621;50.878;4.584;2023-02-26T12:40:37;3.22;;;1.23;;
37781;SDS011;23621;50.878;4.584;2023-02-26T12:46:15;1.20;;;1.10;;
37781;SDS011;23621;50.878;4.584;2023-02-26T12:49:48;1.48;;;1.25;;
37781;SDS011;23621;50.878;4.584;2023-02-26T12:52:48;1.40;;;1.30;;
37781;SDS011;23621;50.878;4.584;2023-02-26T12:55:54;1.50;;;1.42;;
37781;SDS011;23621;50.878;4.584;2023-02-26T12:58:40;2.40;;;1.42;;
37781;SDS011;23621;50.878;4.584;2023-02-26T13:04:40;1.40;;;1.30;;
37781;SDS011;23621;50.878;4.584;2023-02-26T13:07:53;1.42;;;1.33;;
37781;SDS011;23621;50.878;4.584;2023-02-26T13:10:39;2.78;;;1.45;;
37781;SDS011;23621;50.878;4.584;2023-02-26T13:19:02;4.75;;;1.50;;
37781;SDS011;23621;50.878;4.584;2023-02-26T13:22:31;1.38;;;1.27;;
37781;SDS011;23621;50.878;4.584;2023-02-26T13:28:11;3.08;;;1.45;;
37781;SDS011;23621;50.878;4.584;2023-02-26T13:30:44;2.38;;;1.63;;
37781;SDS011;23621;50.878;4.584;2023-02-26T13:33:19;3.58;;;2.13;;
37781;SDS011;23621;50.878;4.584;2023-02-26T13:35:53;2.08;;;1.48;;
37781;SDS011;23621;50.878;4.584;2023-02-26T13:47:37;1.55;;;1.30;;
37781;SDS011;23621;50.878;4.584;2023-02-26T13:53:03;1.30;;;1.30;;
37781;SDS011;23621;50.878;4.584;2023-02-26T13:56:16;1.45;;;1.30;;
37781;SDS011;23621;50.878;4.584;2023-02-26T14:01:48;1.85;;;1.20;;
37781;SDS011;23621;50.878;4.584;2023-02-26T14:10:00;2.35;;;1.52;;
37781;SDS011;23621;50.878;4.584;2023-02-26T14:12:34;1.10;;;1.10;;
37781;SDS011;23621;50.878;4.584;2023-02-26T14:18:00;1.70;;;1.30;;
37781;SDS011;23621;50.878;4.584;2023-02-26T14:20:34;1.40;;;1.30;;
37781;SDS011;23621;50.878;4.584;2023-02-26T14:25:40;2.65;;;1.73;;
37781;SDS011;23621;50.878;4.584;2023-02-26T14:35:05;2.13;;;1.70;;
37781;SDS011;23621;50.878;4.584;2023-02-26T14:37:39;1.67;;;1.55;;
37781;SDS011;23621;50.878;4.584;2023-02-26T14:40:12;2.53;;;2.10;;
37781;SDS011;23621;50.878;4.584;2023-02-26T14:42:43;1.70;;;1.50;;
37781;SDS011;23621;50.878;4.584;2023-02-26T14:45:28;2.42;;;1.80;;
37781;SDS011;23621;50.878;4.584;2023-02-26T14:47:58;4.30;;;1.92;;
37781;SDS011;23621;50.878;4.584;2023-02-26T15:08:44;2.22;;;1.35;;
37781;SDS011;23621;50.878;4.584;2023-02-26T15:14:12;2.38;;;1.23;;
37781;SDS011;23621;50.878;4.584;2023-02-26T15:17:53;1.80;;;1.55;;
37781;SDS011;23621;50.878;4.584;2023-02-26T15:23:48;1.80;;;1.70;;
37781;SDS011;23621;50.878;4.584;2023-02-26T15:26:25;1.88;;;1.20;;
37781;SDS011;23621;50.878;4.584;2023-02-26T15:28:55;2.03;;;1.42;;
37781;SDS011;23621;50.878;4.584;2023-02-26T15:31:28;2.17;;;1.23;;
37781;SDS011;23621;50.878;4.584;2023-02-26T15:33:59;1.48;;;1.38;;
37781;SDS011;23621;50.878;4.584;2023-02-26T15:36:30;1.65;;;1.50;;
37781;SDS011;23621;50.878;4.584;2023-02-26T15:38:58;1.70;;;1.27;;
37781;SDS011;23621;50.878;4.584;2023-02-26T15:41:34;3.15;;;1.52;;
37781;SDS011;23621;50.878;4.584;2023-02-26T15:44:09;2.53;;;1.33;;
37781;SDS011;23621;50.878;4.584;2023-02-26T15:46:46;1.58;;;1.48;;
37781;SDS011;23621;50.878;4.584;2023-02-26T15:49:28;1.88;;;1.70;;
37781;SDS011;23621;50.878;4.584;2023-02-26T15:52:01;2.13;;;1.75;;
37781;SDS011;23621;50.878;4.584;2023-02-26T15:54:34;2.42;;;1.60;;
37781;SDS011;23621;50.878;4.584;2023-02-26T15:57:14;2.58;;;1.50;;
37781;SDS011;23621;50.878;4.584;2023-02-26T15:59:43;1.70;;;1.60;;
37781;SDS011;23621;50.878;4.584;2023-02-26T16:02:14;2.95;;;1.40;;
37781;SDS011;23621;50.878;4.584;2023-02-26T16:05:47;2.00;;;1.88;;
37781;SDS011;23621;50.878;4.584;2023-02-26T16:08:14;4.10;;;1.70;;
37781;SDS011;23621;50.878;4.584;2023-02-26T16:10:43;1.67;;;1.50;;
37781;SDS011;23621;50.878;4.584;2023-02-26T16:13:19;2.20;;;1.30;;
37781;SDS011;23621;50.878;4.584;2023-02-26T16:15:55;2.90;;;1.83;;
37781;SDS011;23621;50.878;4.584;2023-02-26T16:18:33;2.67;;;1.70;;
37781;SDS011;23621;50.878;4.584;2023-02-26T16:21:02;3.47;;;1.60;;
37781;SDS011;23621;50.878;4.584;2023-02-26T16:23:46;2.92;;;1.67;;
37781;SDS011;23621;50.878;4.584;2023-02-26T16:26:23;3.30;;;1.27;;
37781;SDS011;23621;50.878;4.584;2023-02-26T16:29:10;1.50;;;1.40;;
37781;SDS011;23621;50.878;4.584;2023-02-26T16:31:44;2.40;;;1.40;;
37781;SDS011;23621;50.878;4.584;2023-02-26T16:36:59;1.88;;;1.40;;
37781;SDS011;23621;50.878;4.584;2023-02-26T16:39:45;1.20;;;1.20;;
37781;SDS011;23621;50.878;4.584;2023-02-26T16:48:45;2.05;;;1.70;;
37781;SDS011;23621;50.878;4.584;2023-02-26T16:51:14;2.10;;;1.55;;
37781;SDS011;23621;50.878;4.584;2023-02-26T16:58:06;2.45;;;1.80;;
37781;SDS011;23621;50.878;4.584;2023-02-26T17:02:22;3.33;;;1.83;;
37781;SDS011;23621;50.878;4.584;2023-02-26T17:09:24;2.90;;;1.90;;
37781;SDS011;23621;50.878;4.584;2023-02-26T17:16:04;2.58;;;1.80;;
37781;SDS011;23621;50.878;4.584;2023-02-26T17:21:52;3.17;;;2.13;;
37781;SDS011;23621;50.878;4.584;2023-02-26T17:25:21;4.18;;;2.25;;
37781;SDS011;23621;50.878;4.584;2023-02-26T17:28:09;3.42;;;2.47;;
37781;SDS011;23621;50.878;4.584;2023-02-26T17:31:37;2.85;;;2.53;;
37781;SDS011;23621;50.878;4.584;2023-02-26T17:35:11;4.32;;;2.90;;
37781;SDS011;23621;50.878;4.584;2023-02-26T17:42:43;3.35;;;2.70;;
37781;SDS011;23621;50.878;4.584;2023-02-26T17:46:21;4.70;;;2.45;;
37781;SDS011;23621;50.878;4.584;2023-02-26T17:49:13;4.43;;;2.60;;
37781;SDS011;23621;50.878;4.584;2023-02-26T17:52:40;4.07;;;2.58;;
37781;SDS011;23621;50.878;4.584;2023-02-26T17:55:50;3.70;;;2.67;;
37781;SDS011;23621;50.878;4.584;2023-02-26T17:58:41;5.07;;;2.85;;
37781;SDS011;23621;50.878;4.584;2023-02-26T18:04:20;4.57;;;2.72;;
37781;SDS011;23621;50.878;4.584;2023-02-26T18:07:55;3.42;;;2.42;;
37781;SDS011;23621;50.878;4.584;2023-02-26T18:13:50;2.90;;;2.38;;
37781;SDS011;23621;50.878;4.584;2023-02-26T18:16:27;2.53;;;2.30;;
37781;SDS011;23621;50.878;4.584;2023-02-26T18:19:23;3.95;;;2.60;;
37781;SDS011;23621;50.878;4.584;2023-02-26T18:22:08;8.70;;;3.47;;
37781;SDS011;23621;50.878;4.584;2023-02-26T18:24:40;6.22;;;3.70;;
37781;SDS011;23621;50.878;4.584;2023-02-26T18:27:21;4.60;;;3.58;;
37781;SDS011;23621;50.878;4.584;2023-02-26T18:29:56;4.82;;;3.50;;
37781;SDS011;23621;50.878;4.584;2023-02-26T18:32:41;5.90;;;3.80;;
37781;SDS011;23621;50.878;4.584;2023-02-26T18:38:39;3.75;;;3.35;;
37781;SDS011;23621;50.878;4.584;2023-02-26T18:41:06;4.05;;;3.60;;
37781;SDS011;23621;50.878;4.584;2023-02-26T18:43:33;4.68;;;4.15;;
37781;SDS011;23621;50.878;4.584;2023-02-26T18:47:09;7.22;;;4.45;;
37781;SDS011;23621;50.878;4.584;2023-02-26T18:49:38;5.90;;;4.05;;
37781;SDS011;23621;50.878;4.584;2023-02-26T18:52:06;6.78;;;4.38;;
37781;SDS011;23621;50.878;4.584;2023-02-26T18:54:42;4.40;;;4.00;;
37781;SDS011;23621;50.878;4.584;2023-02-26T18:57:10;4.95;;;3.90;;
37781;SDS011;23621;50.878;4.584;2023-02-26T18:59:40;5.13;;;3.60;;
37781;SDS011;23621;50.878;4.584;2023-02-26T19:02:11;4.50;;;3.13;;
37781;SDS011;23621;50.878;4.584;2023-02-26T19:04:44;4.82;;;3.30;;
37781;SDS011;23621;50.878;4.584;2023-02-26T19:07:12;3.75;;;3.15;;